createdAt,value
2018-10-12T00:01:00.969Z,99396.53
2018-10-12T00:03:33.130Z,99397.72
2018-10-12T00:06:05.568Z,99407.65
2018-10-12T00:08:38.069Z,99406.67
2018-10-12T00:11:09.988Z,99406.28
2018-10-12T00:13:41.826Z,99409.84
2018-10-12T00:16:13.591Z,99410.27
2018-10-12T00:18:45.711Z,99415.46
2018-10-12T00:21:17.777Z,99418.73
2018-10-12T00:23:49.575Z,99418.42
2018-10-12T00:26:21.489Z,99411.59
2018-10-12T00:28:53.401Z,99426.13
2018-10-12T00:31:25.217Z,99424.14
2018-10-12T00:33:57.128Z,99419.72
2018-10-12T00:36:28.796Z,99425.27
2018-10-12T00:39:00.818Z,99424.07
2018-10-12T00:41:32.768Z,99425.17
2018-10-12T00:44:05.101Z,99429.10
2018-10-12T00:46:37.238Z,99425.61
2018-10-12T00:49:08.914Z,99433.31
2018-10-12T00:51:40.676Z,99431.75
2018-10-12T00:54:13.175Z,99430.53
2018-10-12T00:56:45.093Z,99435.71
2018-10-12T00:59:16.721Z,99435.63
2018-10-12T01:01:48.695Z,99441.78
2018-10-12T01:04:20.994Z,99442.13
2018-10-12T01:06:53.001Z,99451.44
2018-10-12T01:09:24.827Z,99443.81
2018-10-12T01:12:05.279Z,99449.59
2018-10-12T01:14:37.408Z,99456.53
2018-10-12T01:17:09.162Z,99455.20
2018-10-12T01:19:41.255Z,99461.14
2018-10-12T01:22:13.604Z,99463.25
2018-10-12T01:24:45.928Z,99463.79
2018-10-12T01:27:18.055Z,99459.99
2018-10-12T01:29:50.294Z,99463.52
2018-10-12T01:32:27.051Z,99470.62
2018-10-12T01:34:58.951Z,99472.06
2018-10-12T01:37:30.929Z,99474.73
2018-10-12T01:40:02.947Z,99478.89
2018-10-12T01:42:34.689Z,99478.32
2018-10-12T01:45:06.975Z,99488.63
2018-10-12T01:47:39.111Z,99484.64
2018-10-12T01:50:11.085Z,99490.84
2018-10-12T01:52:43.178Z,99486.86
2018-10-12T01:55:15.162Z,99485.23
2018-10-12T01:57:46.980Z,99483.45
2018-10-12T02:00:19.324Z,99486.45
2018-10-12T02:02:51.285Z,99491.64
2018-10-12T02:05:23.404Z,99493.69
2018-10-12T02:07:54.948Z,99501.75
2018-10-12T02:10:27.125Z,99501.38
2018-10-12T02:12:58.806Z,99508.05
2018-10-12T02:15:30.808Z,99504.75
2018-10-12T02:18:03.248Z,99509.97
2018-10-12T02:20:35.683Z,99508.27
2018-10-12T02:23:07.837Z,99505.97
2018-10-12T02:25:40.197Z,99503.13
2018-10-12T02:28:12.442Z,99500.86
2018-10-12T02:30:44.586Z,99509.37
2018-10-12T02:33:16.808Z,99513.93
2018-10-12T02:35:48.415Z,99510.12
2018-10-12T02:38:20.162Z,99509.56
2018-10-12T02:40:51.753Z,99514.55
2018-10-12T02:43:23.839Z,99519.30
2018-10-12T02:45:55.668Z,99527.27
2018-10-12T02:48:27.601Z,99522.28
2018-10-12T02:50:59.550Z,99522.20
2018-10-12T02:53:31.311Z,99530.72
2018-10-12T02:56:02.968Z,99532.54
2018-10-12T02:58:35.240Z,99532.95
2018-10-12T03:01:07.233Z,99535.45
2018-10-12T03:03:39.145Z,99531.41
2018-10-12T03:06:10.994Z,99534.06
2018-10-12T03:08:43.228Z,99536.17
2018-10-12T03:11:15.168Z,99542.19
2018-10-12T03:13:46.920Z,99543.22
2018-10-12T03:16:18.919Z,99545.00
2018-10-12T03:18:50.914Z,99543.60
2018-10-12T03:21:22.639Z,99546.74
2018-10-12T03:23:54.846Z,99545.03
2018-10-12T03:26:26.398Z,99550.34
2018-10-12T03:28:58.260Z,99554.81
2018-10-12T03:31:30.112Z,99549.28
2018-10-12T03:34:02.639Z,99548.34
2018-10-12T03:36:34.794Z,99546.72
2018-10-12T03:39:08.319Z,99547.02
2018-10-12T03:41:39.955Z,99542.03
2018-10-12T03:44:11.864Z,99540.08
2018-10-12T03:46:43.729Z,99545.33
2018-10-12T03:49:15.450Z,99549.66
2018-10-12T03:51:47.386Z,99544.09
2018-10-12T03:54:19.083Z,99543.37
2018-10-12T03:56:50.778Z,99549.46
2018-10-12T03:59:22.650Z,99543.73
2018-10-12T04:01:54.866Z,99543.37
2018-10-12T04:04:26.266Z,99547.00
2018-10-12T04:06:57.955Z,99539.68
2018-10-12T04:09:29.695Z,99545.44
2018-10-12T04:12:01.675Z,99544.73
2018-10-12T04:14:33.367Z,99548.48
2018-10-12T04:17:05.433Z,99550.75
2018-10-12T04:19:37.149Z,99553.52
2018-10-12T04:22:09.172Z,99548.38
2018-10-12T04:24:40.792Z,99545.42
2018-10-12T04:27:12.703Z,99541.49
2018-10-12T04:29:44.542Z,99538.09
2018-10-12T04:32:17.360Z,99532.12
2018-10-12T04:34:49.989Z,99541.50
2018-10-12T04:37:21.659Z,99538.66
2018-10-12T04:39:58.952Z,99531.56
2018-10-12T04:42:31.113Z,99532.31
2018-10-12T04:45:02.904Z,99538.05
2018-10-12T04:47:35.033Z,99535.75
2018-10-12T04:50:06.874Z,99536.36
2018-10-12T04:52:39.367Z,99529.58
2018-10-12T04:55:11.271Z,99525.58
2018-10-12T04:57:43.109Z,99531.12
2018-10-12T05:00:14.924Z,99528.69
2018-10-12T05:02:46.755Z,99532.80
2018-10-12T05:05:19.917Z,99524.62
2018-10-12T05:07:52.169Z,99525.03
2018-10-12T05:10:23.939Z,99518.83
2018-10-12T05:12:56.020Z,99521.70
2018-10-12T05:15:27.934Z,99519.58
2018-10-12T05:17:59.266Z,99514.00
2018-10-12T05:20:32.184Z,99509.62
2018-10-12T05:23:04.028Z,99498.53
2018-10-12T05:25:35.951Z,99500.63
2018-10-12T05:28:07.926Z,99497.84
2018-10-12T05:30:39.882Z,99497.41
2018-10-12T05:33:12.021Z,99487.56
2018-10-12T05:35:43.773Z,99487.91
2018-10-12T05:38:15.731Z,99473.95
2018-10-12T05:40:47.316Z,99473.44
2018-10-12T05:43:19.227Z,99468.61
2018-10-12T05:45:50.585Z,99469.25
2018-10-12T05:48:31.849Z,99466.20
2018-10-12T05:51:05.564Z,99457.17
2018-10-12T05:53:38.395Z,99454.39
2018-10-12T05:56:10.911Z,99461.86
2018-10-12T05:58:43.914Z,99449.47
2018-10-12T06:01:15.832Z,99448.02
2018-10-12T06:03:47.690Z,99441.45
2018-10-12T06:06:19.771Z,99433.88
2018-10-12T06:08:51.731Z,99430.31
2018-10-12T06:11:23.728Z,99430.59
2018-10-12T06:13:56.003Z,99425.51
2018-10-12T06:16:27.803Z,99424.45
2018-10-12T06:18:59.715Z,99418.03
2018-10-12T06:21:31.716Z,99413.83
2018-10-12T06:24:03.771Z,99411.63
2018-10-12T06:26:36.017Z,99414.42
2018-10-12T06:29:08.076Z,99407.98
2018-10-12T06:31:39.549Z,99406.69
2018-10-12T06:34:12.517Z,99398.33
2018-10-12T06:36:44.560Z,99396.27
2018-10-12T06:39:16.480Z,99390.03
2018-10-12T06:41:48.551Z,99392.27
2018-10-12T06:44:20.474Z,99386.63
2018-10-12T06:46:52.869Z,99380.97
2018-10-12T06:49:25.147Z,99378.42
2018-10-12T06:51:56.956Z,99368.55
2018-10-12T06:54:28.858Z,99365.22
2018-10-12T06:57:00.607Z,99360.29
2018-10-12T06:59:32.499Z,99354.38
2018-10-12T07:02:05.336Z,99352.68
2018-10-12T07:04:37.393Z,99345.45
2018-10-12T07:07:09.595Z,99341.86
2018-10-12T07:09:41.451Z,99332.34
2018-10-12T07:12:13.757Z,99325.11
2018-10-12T07:14:46.175Z,99323.13
2018-10-12T07:17:18.429Z,99313.92
2018-10-12T07:19:50.409Z,99315.64
2018-10-12T07:22:22.165Z,99309.44
2018-10-12T07:24:54.199Z,99306.14
2018-10-12T07:27:26.146Z,99305.34
2018-10-12T07:29:58.810Z,99291.34
2018-10-12T07:32:30.956Z,99292.56
2018-10-12T07:35:02.625Z,99288.89
2018-10-12T07:37:34.634Z,99284.53
2018-10-12T07:40:06.740Z,99280.14
2018-10-12T07:42:38.881Z,99283.08
2018-10-12T07:45:10.818Z,99280.64
2018-10-12T07:47:42.446Z,99271.20
2018-10-12T07:50:14.511Z,99271.30
2018-10-12T07:52:46.639Z,99265.63
2018-10-12T07:55:18.343Z,99262.39
2018-10-12T07:57:50.066Z,99250.28
2018-10-12T08:00:21.974Z,99249.39
2018-10-12T08:02:54.096Z,99249.62
2018-10-12T08:05:26.318Z,99240.07
2018-10-12T08:07:58.212Z,99236.27
2018-10-12T08:10:30.491Z,99227.41
2018-10-12T08:13:02.842Z,99229.45
2018-10-12T08:15:36.397Z,99226.78
2018-10-12T08:18:08.415Z,99224.95
2018-10-12T08:20:40.423Z,99219.37
2018-10-12T08:23:12.296Z,99218.78
2018-10-12T08:25:44.266Z,99211.14
2018-10-12T08:28:16.493Z,99212.94
2018-10-12T08:30:48.994Z,99196.16
2018-10-12T08:33:21.204Z,99200.14
2018-10-12T08:35:54.416Z,99195.98
2018-10-12T08:38:26.648Z,99194.13
2018-10-12T08:41:00.127Z,99193.59
2018-10-12T08:43:33.107Z,99191.80
2018-10-12T08:46:04.830Z,99188.72
2018-10-12T08:48:36.744Z,99183.00
2018-10-12T08:51:08.747Z,99177.45
2018-10-12T08:53:40.636Z,99177.30
2018-10-12T08:56:12.764Z,99168.15
2018-10-12T08:58:44.692Z,99166.92
2018-10-12T09:01:16.850Z,99163.81
2018-10-12T09:03:50.018Z,99165.03
2018-10-12T09:06:21.917Z,99163.02
2018-10-12T09:08:54.037Z,99162.98
2018-10-12T09:11:26.784Z,99161.12
2018-10-12T09:13:59.078Z,99150.14
2018-10-12T09:16:31.182Z,99150.14
2018-10-12T09:19:03.517Z,99145.14
2018-10-12T09:21:35.671Z,99143.52
2018-10-12T09:24:07.504Z,99138.06
2018-10-12T09:26:39.620Z,99136.48
2018-10-12T09:29:11.183Z,99140.56
2018-10-12T09:31:43.160Z,99137.39
2018-10-12T09:34:14.829Z,99125.97
2018-10-12T09:36:46.876Z,99134.28
2018-10-12T09:39:19.361Z,99134.39
2018-10-12T09:41:51.489Z,99132.05
2018-10-12T09:44:23.692Z,99132.80
2018-10-12T09:46:55.381Z,99129.80
2018-10-12T09:49:27.234Z,99120.44
2018-10-12T09:51:59.346Z,99120.95
2018-10-12T09:54:30.975Z,99120.45
2018-10-12T09:57:07.533Z,99113.47
2018-10-12T09:59:41.125Z,99115.80
2018-10-12T10:02:17.990Z,99113.45
2018-10-12T10:04:49.773Z,99116.47
2018-10-12T10:07:21.820Z,99114.12
2018-10-12T10:09:53.473Z,99110.63
2018-10-12T10:12:25.619Z,99120.39
2018-10-12T10:14:57.271Z,99120.17
2018-10-12T10:17:29.432Z,99119.03
2018-10-12T10:20:01.434Z,99117.37
2018-10-12T10:22:35.186Z,99116.74
2018-10-12T10:25:09.404Z,99110.78
2018-10-12T10:27:43.613Z,99115.12
2018-10-12T10:30:16.061Z,99120.71
2018-10-12T10:32:47.818Z,99121.33
2018-10-12T10:35:21.495Z,99122.34
2018-10-12T10:37:53.136Z,99117.83
2018-10-12T10:40:26.233Z,99120.05
2018-10-12T10:42:59.218Z,99128.37
2018-10-12T10:45:32.041Z,99128.70
2018-10-12T10:48:04.058Z,99127.52
2018-10-12T10:50:36.108Z,99130.83
2018-10-12T10:53:08.128Z,99127.30
2018-10-12T10:55:39.811Z,99124.67
2018-10-12T10:58:11.501Z,99129.52
2018-10-12T11:00:43.471Z,99128.98
2018-10-12T11:03:15.658Z,99134.95
2018-10-12T11:05:47.411Z,99131.80
2018-10-12T11:08:20.927Z,99129.94
2018-10-12T11:10:59.181Z,99129.91
2018-10-12T11:13:43.263Z,99125.33
2018-10-12T11:16:31.182Z,99122.47
2018-10-12T11:19:14.860Z,99124.50
2018-10-12T11:22:03.056Z,99128.06
2018-10-12T11:24:51.576Z,99129.74
2018-10-12T11:27:36.149Z,99125.41
2018-10-12T11:30:21.619Z,99132.42
2018-10-12T11:33:01.247Z,99130.28
2018-10-12T11:35:34.462Z,99127.94
2018-10-12T11:38:06.637Z,99130.28
2018-10-12T11:40:38.404Z,99124.97
2018-10-12T11:43:39.751Z,99124.66
2018-10-12T11:46:12.054Z,99133.67
2018-10-12T11:48:43.756Z,99129.84
2018-10-12T11:51:17.564Z,99129.50
2018-10-12T11:53:50.536Z,99136.34
2018-10-12T11:56:22.343Z,99134.67
2018-10-12T11:58:54.225Z,99141.67
2018-10-12T12:01:26.283Z,99144.14
2018-10-12T12:03:58.363Z,99146.14
2018-10-12T12:06:30.178Z,99152.61
2018-10-12T12:09:02.030Z,99156.22
2018-10-12T12:11:33.629Z,99156.70
2018-10-12T12:14:05.514Z,99164.84
2018-10-12T12:16:37.666Z,99159.52
2018-10-12T12:19:09.292Z,99164.69
2018-10-12T12:21:41.190Z,99164.20
2018-10-12T12:24:13.009Z,99169.02
2018-10-12T12:26:44.799Z,99176.56
2018-10-12T12:29:16.482Z,99170.44
2018-10-12T12:31:48.269Z,99171.77
2018-10-12T12:34:20.059Z,99172.09
2018-10-12T12:36:52.415Z,99176.26
2018-10-12T12:39:24.415Z,99180.25
2018-10-12T12:41:56.243Z,99179.76
2018-10-12T12:44:28.941Z,99183.26
2018-10-12T12:47:00.875Z,99175.72
2018-10-12T12:49:32.310Z,99186.53
2018-10-12T12:52:03.697Z,99191.43
2018-10-12T12:54:35.028Z,99194.73
2018-10-12T12:57:07.053Z,99193.91
2018-10-12T12:59:38.652Z,99188.92
2018-10-12T13:02:10.907Z,99199.48
2018-10-12T13:04:42.688Z,99197.84
2018-10-12T13:07:14.791Z,99198.53
2018-10-12T13:09:46.607Z,99198.20
2018-10-12T13:12:18.661Z,99204.27
2018-10-12T13:14:50.864Z,99209.30
2018-10-12T13:17:22.854Z,99213.36
2018-10-12T13:19:54.670Z,99212.59
2018-10-12T13:22:26.742Z,99214.41
2018-10-12T13:24:58.779Z,99220.08
2018-10-12T13:27:30.835Z,99220.57
2018-10-12T13:30:03.585Z,99231.02
2018-10-12T13:32:35.183Z,99234.17
2018-10-12T13:35:07.252Z,99233.33
2018-10-12T13:37:39.962Z,99241.98
2018-10-12T13:40:11.792Z,99237.65
2018-10-12T13:42:43.332Z,99240.16
2018-10-12T13:45:15.321Z,99249.13
2018-10-12T13:47:47.004Z,99249.13
2018-10-12T13:50:18.828Z,99246.42
2018-10-12T13:52:50.887Z,99252.85
2018-10-12T13:55:22.987Z,99256.82
2018-10-12T13:57:54.791Z,99254.80
2018-10-12T14:00:26.964Z,99264.60
2018-10-12T14:02:59.142Z,99270.47
2018-10-12T14:05:30.996Z,99269.78
2018-10-12T14:08:03.015Z,99279.03
2018-10-12T14:10:35.068Z,99281.69
2018-10-12T14:13:07.772Z,99283.69
2018-10-12T14:15:39.578Z,99289.50
2018-10-12T14:18:11.827Z,99291.06
2018-10-12T14:20:44.642Z,99295.34
2018-10-12T14:23:16.407Z,99295.34
2018-10-12T14:25:48.282Z,99300.37
2018-10-12T14:28:20.215Z,99301.84
2018-10-12T14:30:51.935Z,99308.35
2018-10-12T14:33:23.922Z,99309.68
2018-10-12T14:35:55.785Z,99309.63
2018-10-12T14:38:28.622Z,99309.97
2018-10-12T14:41:00.523Z,99307.31
2018-10-12T14:43:32.340Z,99312.11
2018-10-12T14:46:04.042Z,99309.88
2018-10-12T14:48:36.107Z,99317.20
2018-10-12T14:51:08.338Z,99313.56
2018-10-12T14:53:40.007Z,99320.20
2018-10-12T14:56:11.934Z,99325.84
2018-10-12T14:58:43.988Z,99325.20
2018-10-12T15:01:15.964Z,99326.25
2018-10-12T15:03:47.947Z,99335.59
2018-10-12T15:06:19.743Z,99332.30
2018-10-12T15:08:51.400Z,99336.22
2018-10-12T15:11:23.164Z,99337.18
2018-10-12T15:13:54.987Z,99327.48
2018-10-12T15:16:26.781Z,99333.80
2018-10-12T15:18:58.777Z,99337.78
2018-10-12T15:21:30.465Z,99335.27
2018-10-12T15:24:02.625Z,99338.24
2018-10-12T15:26:34.670Z,99340.73
2018-10-12T15:29:06.465Z,99342.75
2018-10-12T15:31:38.353Z,99339.08
2018-10-12T15:34:09.943Z,99346.02
2018-10-12T15:36:41.506Z,99346.05
2018-10-12T15:39:13.624Z,99348.25
2018-10-12T15:41:45.562Z,99349.77
2018-10-12T15:44:17.619Z,99354.81
2018-10-12T15:46:49.387Z,99346.48
2018-10-12T15:49:21.269Z,99350.52
2018-10-12T15:51:53.170Z,99355.55
2018-10-12T15:54:24.864Z,99357.89
2018-10-12T15:56:57.830Z,99353.52
2018-10-12T15:59:29.596Z,99355.20
2018-10-12T16:02:01.456Z,99353.91
2018-10-12T16:04:33.507Z,99357.05
2018-10-12T16:07:05.355Z,99351.20
2018-10-12T16:09:37.064Z,99346.52
2018-10-12T16:12:08.645Z,99345.89
2018-10-12T16:14:40.625Z,99354.98
2018-10-12T16:18:37.115Z,99357.22
2018-10-12T16:21:09.572Z,99355.20
2018-10-12T16:23:41.452Z,99360.06
2018-10-12T16:26:21.685Z,99359.92
2018-10-12T16:28:53.620Z,99356.67
2018-10-12T16:31:25.716Z,99355.48
2018-10-12T16:33:57.356Z,99352.64
2018-10-12T16:36:29.418Z,99353.77
2018-10-12T16:39:01.538Z,99355.05
2018-10-12T16:41:33.334Z,99353.23
2018-10-12T16:44:05.298Z,99353.52
2018-10-12T16:46:37.294Z,99353.63
2018-10-12T16:49:09.258Z,99351.91
2018-10-12T16:51:41.374Z,99352.15
2018-10-12T16:54:13.046Z,99356.73
2018-10-12T16:56:45.128Z,99351.24
2018-10-12T16:59:16.979Z,99352.50
2018-10-12T17:01:49.068Z,99356.02
2018-10-12T17:04:21.193Z,99351.92
2018-10-12T17:06:53.131Z,99357.97
2018-10-12T17:09:24.714Z,99349.50
2018-10-12T17:11:56.934Z,99349.50
2018-10-12T17:14:29.201Z,99351.52
2018-10-12T17:17:01.327Z,99349.84
2018-10-12T17:19:33.305Z,99347.67
2018-10-12T17:22:05.191Z,99348.16
2018-10-12T17:24:37.143Z,99350.83
2018-10-12T17:27:09.045Z,99347.53
2018-10-12T17:29:40.676Z,99341.55
2018-10-12T17:32:12.547Z,99339.92
2018-10-12T17:34:44.032Z,99342.30
2018-10-12T17:37:16.050Z,99336.98
2018-10-12T17:39:47.556Z,99342.53
2018-10-12T17:42:20.484Z,99343.39
2018-10-12T17:44:52.142Z,99339.80
2018-10-12T17:47:24.323Z,99342.50
2018-10-12T17:49:56.031Z,99340.88
2018-10-12T17:52:27.821Z,99339.84
2018-10-12T17:54:59.606Z,99333.82
2018-10-12T17:57:31.522Z,99337.64
2018-10-12T18:00:03.423Z,99334.98
2018-10-12T18:02:35.488Z,99331.16
2018-10-12T18:05:07.236Z,99331.72
2018-10-12T18:07:39.365Z,99331.42
2018-10-12T18:10:12.296Z,99330.76
2018-10-12T18:12:44.396Z,99327.11
2018-10-12T18:15:16.721Z,99326.97
2018-10-12T18:17:48.530Z,99330.27
2018-10-12T18:20:20.372Z,99325.78
2018-10-12T18:22:52.487Z,99326.59
2018-10-12T18:25:24.114Z,99325.06
2018-10-12T18:27:56.143Z,99325.41
2018-10-12T18:30:28.142Z,99320.23
2018-10-12T18:33:00.148Z,99325.20
2018-10-12T18:35:32.060Z,99317.55
2018-10-12T18:38:04.058Z,99322.89
2018-10-12T18:40:36.373Z,99320.52
2018-10-12T18:43:08.789Z,99328.22
2018-10-12T18:45:40.864Z,99330.23
2018-10-12T18:48:12.954Z,99331.92
2018-10-12T18:50:44.565Z,99334.23
2018-10-12T18:53:16.412Z,99336.75
2018-10-12T18:55:48.439Z,99333.88
2018-10-12T18:58:20.469Z,99336.20
2018-10-12T19:00:52.297Z,99327.00
2018-10-12T19:03:24.250Z,99328.77
2018-10-12T19:05:56.063Z,99328.13
2018-10-12T19:08:28.238Z,99334.77
2018-10-12T19:10:59.971Z,99334.14
2018-10-12T19:13:32.182Z,99343.94
2018-10-12T19:16:03.972Z,99337.06
2018-10-12T19:18:36.099Z,99325.58
2018-10-12T19:21:07.902Z,99322.08
2018-10-12T19:23:40.128Z,99329.08
2018-10-12T19:26:11.992Z,99323.16
2018-10-12T19:28:43.837Z,99326.52
2018-10-12T19:31:15.507Z,99319.86
2018-10-12T19:33:47.494Z,99316.36
2018-10-12T19:36:19.434Z,99317.84
2018-10-12T19:38:51.257Z,99314.13
2018-10-12T19:41:23.512Z,99316.30
2018-10-12T19:43:55.644Z,99308.81
2018-10-12T19:46:27.559Z,99309.51
2018-10-12T19:48:59.649Z,99303.84
2018-10-12T19:51:31.443Z,99303.49
2018-10-12T19:54:03.254Z,99303.81
2018-10-12T19:56:34.917Z,99304.30
2018-10-12T19:59:06.848Z,99311.97
2018-10-12T20:01:39.371Z,99317.28
2018-10-12T20:04:11.578Z,99317.48
2018-10-12T20:06:44.191Z,99312.66
2018-10-12T20:09:15.987Z,99317.14
2018-10-12T20:11:47.759Z,99320.61
2018-10-12T20:14:19.832Z,99316.13
2018-10-12T20:16:51.920Z,99315.43
2018-10-12T20:19:23.931Z,99317.75
2018-10-12T20:21:56.016Z,99315.78
2018-10-12T20:24:27.793Z,99318.44
2018-10-12T20:26:59.694Z,99314.56
2018-10-12T20:29:31.639Z,99316.03
2018-10-12T20:32:03.709Z,99317.51
2018-10-12T20:34:35.663Z,99318.84
2018-10-12T20:37:07.616Z,99320.77
2018-10-12T20:39:39.542Z,99314.96
2018-10-12T20:42:11.021Z,99323.42
2018-10-12T20:44:43.083Z,99321.01
2018-10-12T20:47:14.998Z,99319.67
2018-10-12T20:49:47.099Z,99316.53
2018-10-12T20:52:19.134Z,99309.39
2018-10-12T20:54:51.272Z,99316.67
2018-10-12T20:57:23.208Z,99310.02
2018-10-12T20:59:55.381Z,99305.97
2018-10-12T21:02:28.540Z,99307.09
2018-10-12T21:05:00.772Z,99302.41
2018-10-12T21:07:32.461Z,99303.56
2018-10-12T21:10:04.668Z,99308.88
2018-10-12T21:12:36.846Z,99303.56
2018-10-12T21:15:09.033Z,99305.73
2018-10-12T21:17:41.174Z,99304.23
2018-10-12T21:20:13.294Z,99300.09
2018-10-12T21:22:45.396Z,99304.30
2018-10-12T21:25:17.419Z,99296.31
2018-10-12T21:27:49.499Z,99295.83
2018-10-12T21:30:21.489Z,99299.12
2018-10-12T21:32:53.721Z,99293.45
2018-10-12T21:35:26.317Z,99299.58
2018-10-12T21:37:58.084Z,99301.68
2018-10-12T21:40:29.780Z,99299.02
2018-10-12T21:43:01.516Z,99294.69
2018-10-12T21:45:33.227Z,99293.84
2018-10-12T21:48:04.974Z,99292.84
2018-10-12T21:50:37.111Z,99295.14
2018-10-12T21:53:09.149Z,99280.52
2018-10-12T21:55:41.451Z,99296.82
2018-10-12T21:58:13.332Z,99294.83
2018-10-12T22:00:50.002Z,99292.52
2018-10-12T22:03:22.852Z,99291.53
2018-10-12T22:05:54.912Z,99291.89
2018-10-12T22:08:31.181Z,99291.89
2018-10-12T22:11:03.326Z,99294.20
2018-10-12T22:13:35.275Z,99295.17
2018-10-12T22:16:07.070Z,99300.50
2018-10-12T22:18:38.503Z,99301.16
2018-10-12T22:21:10.437Z,99300.45
2018-10-12T22:23:42.202Z,99302.28
2018-10-12T22:26:14.202Z,99300.60
2018-10-12T22:28:46.506Z,99306.72
2018-10-12T22:31:19.027Z,99306.86
2018-10-12T22:33:50.827Z,99312.36
2018-10-12T22:36:23.029Z,99316.34
2018-10-12T22:38:54.667Z,99315.36
2018-10-12T22:41:26.734Z,99315.71
2018-10-12T22:43:59.644Z,99320.53
2018-10-12T22:46:31.483Z,99326.34
2018-10-12T22:49:03.534Z,99322.70
2018-10-12T22:51:35.286Z,99321.66
2018-10-12T22:54:07.355Z,99327.98
2018-10-12T22:56:39.443Z,99336.59
2018-10-12T22:59:11.206Z,99334.91
2018-10-12T23:01:43.120Z,99332.39
2018-10-12T23:04:16.330Z,99335.54
2018-10-12T23:06:48.237Z,99341.52
2018-10-12T23:09:20.186Z,99338.02
2018-10-12T23:11:52.289Z,99337.19
2018-10-12T23:14:24.143Z,99344.80
2018-10-12T23:16:55.900Z,99343.48
2018-10-12T23:19:27.724Z,99355.64
2018-10-12T23:21:59.809Z,99368.27
2018-10-12T23:24:31.665Z,99369.25
2018-10-12T23:27:03.694Z,99371.66
2018-10-12T23:29:36.096Z,99384.59
2018-10-12T23:32:08.711Z,99388.63
2018-10-12T23:34:40.702Z,99390.00
2018-10-12T23:37:12.510Z,99390.63
2018-10-12T23:39:44.437Z,99389.87
2018-10-12T23:42:16.333Z,99400.77
2018-10-12T23:44:48.296Z,99407.95
2018-10-12T23:47:20.536Z,99411.00
2018-10-12T23:49:52.694Z,99414.73
2018-10-12T23:52:24.328Z,99418.58
2018-10-12T23:54:56.228Z,99419.67
2018-10-12T23:57:28.337Z,99421.63
